Air Navigation Services of Czech Republic
Airport: LKKB Updated:  03.10.2022 09:59:31  UTC
 METAR LKKB 03.10. 10:00 ...
METAR LKKB 031000Z 28011KT 230V300 9999 -SHRA SCT021 BKN032 12/09 Q1022 NOSIG RMK BLU BLU=
 TAF LKKB 03.10. 05:00 ...
TAF LKKB 030500Z 0306/0406 27012KT 9999 BKN040      TEMPO 0306/0318 28015G30KT      PROB30 TEMPO 0306/0310 8000 SHRA BKN020      PROB30 TEMPO 0320/0402 7000 SHRA BKN020      BECMG 0402/0404 27008KT=